createdAt,value
2018-12-21T00:00:09.395Z,98973.98
2018-12-21T00:02:36.446Z,98964.32
2018-12-21T00:05:04.168Z,98958.77
2018-12-21T00:07:31.389Z,98957.73
2018-12-21T00:09:58.470Z,98952.47
2018-12-21T00:12:25.656Z,98946.09
2018-12-21T00:14:52.743Z,98940.50
2018-12-21T00:17:19.955Z,98948.49
2018-12-21T00:19:47.805Z,98949.84
2018-12-21T00:22:14.909Z,98941.72
2018-12-21T00:24:41.996Z,98929.72
2018-12-21T00:27:09.129Z,98915.24
2018-12-21T00:29:36.731Z,98927.17
2018-12-21T00:32:09.714Z,98880.81
2018-12-21T00:34:42.620Z,98912.80
2018-12-21T00:37:15.377Z,98907.83
2018-12-21T00:39:48.101Z,98912.09
2018-12-21T00:43:21.448Z,98913.16
2018-12-21T00:45:53.186Z,98896.81
2018-12-21T00:48:20.427Z,98900.96
2018-12-21T00:50:47.520Z,98902.02
2018-12-21T00:53:14.640Z,98897.78
2018-12-21T00:55:41.684Z,98902.56
2018-12-21T00:58:08.740Z,98891.78
2018-12-21T01:00:35.794Z,98886.77
2018-12-21T01:03:03.002Z,98878.11
2018-12-21T01:05:30.096Z,98900.70
2018-12-21T01:07:57.236Z,98893.64
2018-12-21T01:10:24.344Z,98890.20
2018-12-21T01:12:51.401Z,98893.16
2018-12-21T01:15:18.501Z,98888.77
2018-12-21T01:17:45.576Z,98899.01
2018-12-21T01:20:12.758Z,98896.47
2018-12-21T01:22:39.794Z,98905.65
2018-12-21T01:25:06.873Z,98906.13
2018-12-21T01:27:34.011Z,98899.39
2018-12-21T01:30:01.245Z,98907.54
2018-12-21T01:32:28.383Z,98902.63
2018-12-21T01:34:55.462Z,98899.73
2018-12-21T01:37:22.673Z,98886.26
2018-12-21T01:39:50.280Z,98898.36
2018-12-21T01:42:17.349Z,98882.34
2018-12-21T01:44:44.404Z,98897.39
2018-12-21T01:47:11.598Z,98903.97
2018-12-21T01:49:38.707Z,98904.23
2018-12-21T01:52:06.007Z,98909.20
2018-12-21T01:54:33.067Z,98896.81
2018-12-21T01:57:00.117Z,98898.99
2018-12-21T01:59:27.200Z,98886.94
2018-12-21T02:01:54.319Z,98888.52
2018-12-21T02:04:21.498Z,98886.83
2018-12-21T02:06:48.522Z,98884.42
2018-12-21T02:09:16.152Z,98869.44
2018-12-21T02:11:43.199Z,98875.02
2018-12-21T02:14:10.245Z,98881.65
2018-12-21T02:16:37.296Z,98870.55
2018-12-21T02:19:04.623Z,98860.02
2018-12-21T02:21:31.691Z,98861.36
2018-12-21T02:23:58.845Z,98851.66
2018-12-21T02:26:25.925Z,98860.59
2018-12-21T02:28:52.952Z,98847.14
2018-12-21T02:31:20.047Z,98833.91
2018-12-21T02:33:47.097Z,98836.28
2018-12-21T02:36:14.198Z,98822.23
2018-12-21T02:38:41.276Z,98821.13
2018-12-21T02:41:08.466Z,98813.03
2018-12-21T02:43:35.708Z,98806.50
2018-12-21T02:46:02.808Z,98813.88
2018-12-21T02:48:30.453Z,98805.67
2018-12-21T02:50:58.571Z,98801.95
2018-12-21T02:53:25.648Z,98792.75
2018-12-21T02:55:52.785Z,98797.03
2018-12-21T02:58:19.883Z,98783.83
2018-12-21T03:00:48.578Z,98779.05
2018-12-21T03:03:16.518Z,98780.06
2018-12-21T03:05:43.742Z,98785.09
2018-12-21T03:08:10.853Z,98760.94
2018-12-21T03:10:37.927Z,98754.05
2018-12-21T03:13:05.026Z,98739.34
2018-12-21T03:15:32.229Z,98732.25
2018-12-21T03:17:59.426Z,98721.72
2018-12-21T03:20:27.407Z,98718.55
2018-12-21T03:22:54.538Z,98714.80
2018-12-21T03:25:21.648Z,98706.31
2018-12-21T03:27:48.771Z,98712.47
2018-12-21T03:30:15.857Z,98702.72
2018-12-21T03:32:42.939Z,98698.08
2018-12-21T03:35:10.134Z,98684.39
2018-12-21T03:37:37.239Z,98681.51
2018-12-21T03:40:04.903Z,98681.98
2018-12-21T03:42:31.994Z,98683.00
2018-12-21T03:44:59.088Z,98676.94
2018-12-21T03:47:26.392Z,98669.64
2018-12-21T03:49:53.496Z,98662.53
2018-12-21T03:52:24.551Z,98665.98
2018-12-21T03:54:49.748Z,98664.98
2018-12-21T03:57:16.957Z,98648.59
2018-12-21T03:59:45.236Z,98650.18
2018-12-21T04:02:12.316Z,98652.31
2018-12-21T04:04:39.418Z,98652.13
2018-12-21T04:07:06.447Z,98646.02
2018-12-21T04:09:33.556Z,98632.34
2018-12-21T04:12:00.626Z,98627.94
2018-12-21T04:14:27.851Z,98621.08
2018-12-21T04:16:55.052Z,98622.16
2018-12-21T04:19:22.244Z,98619.48
2018-12-21T04:21:49.329Z,98607.67
2018-12-21T04:24:16.727Z,98612.42
2018-12-21T04:26:43.795Z,98610.57
2018-12-21T04:29:11.799Z,98607.64
2018-12-21T04:31:38.933Z,98617.97
2018-12-21T04:34:06.014Z,98610.88
2018-12-21T04:36:33.068Z,98609.83
2018-12-21T04:39:00.722Z,98615.11
2018-12-21T04:41:27.766Z,98611.44
2018-12-21T04:43:54.892Z,98621.70
2018-12-21T04:46:22.072Z,98606.42
2018-12-21T04:48:49.147Z,98603.24
2018-12-21T04:51:16.231Z,98597.98
2018-12-21T04:53:43.284Z,98603.80
2018-12-21T04:56:10.408Z,98594.83
2018-12-21T04:58:37.444Z,98597.16
2018-12-21T05:01:04.561Z,98590.55
2018-12-21T05:03:31.743Z,98591.05
2018-12-21T05:05:58.836Z,98580.27
2018-12-21T05:08:25.935Z,98587.11
2018-12-21T05:10:54.500Z,98569.69
2018-12-21T05:13:21.779Z,98569.45
2018-12-21T05:15:48.887Z,98569.95
2018-12-21T05:18:15.946Z,98557.56
2018-12-21T05:20:43.258Z,98553.59
2018-12-21T05:23:10.330Z,98548.37
2018-12-21T05:25:37.403Z,98532.80
2018-12-21T05:28:04.501Z,98526.75
2018-12-21T05:30:32.744Z,98530.95
2018-12-21T05:33:00.344Z,98520.17
2018-12-21T05:35:27.418Z,98506.50
2018-12-21T05:37:54.516Z,98506.01
2018-12-21T05:40:21.562Z,98500.23
2018-12-21T05:42:48.651Z,98489.96
2018-12-21T05:45:15.951Z,98464.42
2018-12-21T05:47:43.027Z,98459.70
2018-12-21T05:50:10.143Z,98432.31
2018-12-21T05:52:37.461Z,98427.83
2018-12-21T05:55:04.540Z,98408.34
2018-12-21T05:57:31.730Z,98414.38
2018-12-21T05:59:58.815Z,98410.44
2018-12-21T06:02:25.924Z,98422.30
2018-12-21T06:04:53.643Z,98426.22
2018-12-21T06:07:20.729Z,98410.69
2018-12-21T06:09:47.959Z,98405.95
2018-12-21T06:12:15.708Z,98411.73
2018-12-21T06:14:42.873Z,98413.34
2018-12-21T06:17:10.066Z,98415.98
2018-12-21T06:19:37.194Z,98395.70
2018-12-21T06:22:05.111Z,98413.88
2018-12-21T06:24:32.322Z,98393.87
2018-12-21T06:26:59.472Z,98385.96
2018-12-21T06:29:26.557Z,98383.59
2018-12-21T06:31:53.633Z,98384.66
2018-12-21T06:34:20.726Z,98385.19
2018-12-21T06:36:47.851Z,98387.81
2018-12-21T06:39:15.131Z,98387.81
2018-12-21T06:41:42.328Z,98360.17
2018-12-21T06:44:09.404Z,98360.70
2018-12-21T06:46:36.580Z,98359.66
2018-12-21T06:49:03.791Z,98365.17
2018-12-21T06:51:30.831Z,98385.73
2018-12-21T06:53:58.032Z,98343.34
2018-12-21T06:56:25.229Z,98365.17
2018-12-21T06:58:52.435Z,98367.81
2018-12-21T07:01:19.572Z,98343.05
2018-12-21T07:03:47.199Z,98329.63
2018-12-21T07:06:15.004Z,98345.95
2018-12-21T07:08:42.171Z,98324.11
2018-12-21T07:11:09.952Z,98328.83
2018-12-21T07:13:37.096Z,98319.61
2018-12-21T07:16:04.240Z,98332.78
2018-12-21T07:18:31.668Z,98314.62
2018-12-21T07:20:58.823Z,98312.23
2018-12-21T07:23:27.307Z,98303.54
2018-12-21T07:25:54.807Z,98311.47
2018-12-21T07:28:22.676Z,98327.00
2018-12-21T07:30:49.800Z,98310.39
2018-12-21T07:33:17.617Z,98325.67
2018-12-21T07:35:44.864Z,98302.77
2018-12-21T07:38:12.124Z,98308.56
2018-12-21T07:40:39.247Z,98168.62
2018-12-21T07:43:06.393Z,98305.12
2018-12-21T07:45:33.592Z,98291.20
2018-12-21T07:48:00.671Z,98290.92
2018-12-21T07:50:27.811Z,98300.94
2018-12-21T07:52:58.479Z,98291.20
2018-12-21T07:55:25.659Z,98291.72
2018-12-21T07:57:53.010Z,98262.99
2018-12-21T08:00:20.279Z,98270.65
2018-12-21T08:02:47.488Z,98276.71
2018-12-21T08:05:14.566Z,98240.61
2018-12-21T08:07:41.723Z,98221.42
2018-12-21T08:10:16.026Z,98219.27
2018-12-21T08:12:43.120Z,98207.70
2018-12-21T08:15:10.344Z,98224.81
2018-12-21T08:17:37.599Z,98218.75
2018-12-21T08:20:05.563Z,98224.01
2018-12-21T08:22:32.835Z,98203.22
2018-12-21T08:25:00.214Z,98209.24
2018-12-21T08:27:28.415Z,98210.04
2018-12-21T08:29:56.194Z,98203.22
2018-12-21T08:32:23.996Z,98195.83
2018-12-21T08:34:51.313Z,98216.06
2018-12-21T08:37:18.420Z,98179.47
2018-12-21T08:39:45.612Z,98196.56
2018-12-21T08:42:12.782Z,98204.95
2018-12-21T08:44:40.040Z,98176.26
2018-12-21T08:47:07.247Z,98191.02
2018-12-21T08:49:34.860Z,98200.53
2018-12-21T08:52:02.206Z,98177.63
2018-12-21T08:54:29.363Z,98187.36
2018-12-21T08:56:56.603Z,98167.31
2018-12-21T08:59:25.186Z,98167.02
2018-12-21T09:01:52.896Z,98171.20
2018-12-21T09:04:20.110Z,98159.34
2018-12-21T09:06:47.293Z,98143.81
2018-12-21T09:09:14.713Z,98168.84
2018-12-21T09:11:42.703Z,98111.49
2018-12-21T09:14:10.554Z,98146.67
2018-12-21T09:16:37.694Z,98149.84
2018-12-21T09:19:04.832Z,98137.45
2018-12-21T09:21:32.069Z,98132.69
2018-12-21T09:24:01.081Z,98142.67
2018-12-21T09:26:28.949Z,98119.74
2018-12-21T09:28:56.426Z,98142.44
2018-12-21T09:31:24.336Z,98143.16
2018-12-21T09:33:53.692Z,98120.47
2018-12-21T09:36:20.852Z,98101.50
2018-12-21T09:38:48.021Z,98114.94
2018-12-21T09:41:15.575Z,98113.66
2018-12-21T09:43:42.913Z,98127.58
2018-12-21T09:46:10.063Z,98116.26
2018-12-21T09:48:37.312Z,98126.00
2018-12-21T09:51:05.169Z,98108.06
2018-12-21T09:53:32.251Z,98137.96
2018-12-21T09:55:59.366Z,98119.19
2018-12-21T09:58:26.492Z,98118.90
2018-12-21T10:00:53.591Z,98108.06
2018-12-21T10:03:20.969Z,98109.94
2018-12-21T10:05:48.719Z,98097.58
2018-12-21T10:08:16.319Z,98114.20
2018-12-21T10:10:43.601Z,98111.80
2018-12-21T10:13:10.795Z,98114.20
2018-12-21T10:15:37.943Z,98117.15
2018-12-21T10:18:05.281Z,98070.53
2018-12-21T10:20:32.469Z,98096.91
2018-12-21T10:22:59.578Z,98110.87
2018-12-21T10:25:26.865Z,98095.06
2018-12-21T10:27:54.079Z,98075.59
2018-12-21T10:30:21.216Z,98103.19
2018-12-21T10:32:49.184Z,98074.20
2018-12-21T10:35:16.844Z,98093.05
2018-12-21T10:37:44.029Z,98087.84
2018-12-21T10:40:11.339Z,98084.92
2018-12-21T10:42:38.501Z,98081.47
2018-12-21T10:45:05.952Z,98070.70
2018-12-21T10:47:33.057Z,98051.98
2018-12-21T10:50:00.156Z,98058.58
2018-12-21T10:52:27.264Z,98059.88
2018-12-21T10:54:54.480Z,98046.15
2018-12-21T10:57:21.664Z,98042.02
2018-12-21T10:59:48.939Z,98067.06
2018-12-21T11:02:17.443Z,98062.60
2018-12-21T11:04:44.603Z,98053.86
2018-12-21T11:07:11.877Z,98069.14
2018-12-21T11:09:39.129Z,98049.91
2018-12-21T11:12:06.256Z,98050.95
2018-12-21T11:14:33.376Z,98076.80
2018-12-21T11:17:00.532Z,98067.63
2018-12-21T11:19:27.692Z,98040.14
2018-12-21T11:21:54.852Z,98032.53
2018-12-21T11:24:22.560Z,98020.27
2018-12-21T11:26:49.806Z,98022.80
2018-12-21T11:29:17.023Z,98052.33
2018-12-21T11:31:45.135Z,98027.55
2018-12-21T11:34:12.242Z,98027.27
2018-12-21T11:36:39.383Z,98024.39
2018-12-21T11:39:06.616Z,98039.73
2018-12-21T11:41:34.622Z,98038.09
2018-12-21T11:44:03.656Z,98031.50
2018-12-21T11:46:30.970Z,98020.66
2018-12-21T11:48:58.198Z,98053.10
2018-12-21T11:51:25.325Z,98024.41
2018-12-21T11:53:52.551Z,98031.20
2018-12-21T11:56:19.774Z,98031.48
2018-12-21T11:58:46.924Z,98004.55
2018-12-21T12:01:14.064Z,98018.00
2018-12-21T12:03:41.212Z,98012.03
2018-12-21T12:06:08.345Z,98026.23
2018-12-21T12:08:36.149Z,97999.88
2018-12-21T12:11:04.219Z,98024.91
2018-12-21T12:13:31.457Z,98020.13
2018-12-21T12:16:01.652Z,98015.64
2018-12-21T12:18:28.875Z,97998.16
2018-12-21T12:20:56.844Z,98006.40
2018-12-21T12:23:24.198Z,97998.99
2018-12-21T12:25:51.344Z,98021.98
2018-12-21T12:28:18.492Z,97989.52
2018-12-21T12:30:45.624Z,98012.22
2018-12-21T12:33:12.814Z,97999.52
2018-12-21T12:35:40.234Z,97995.85
2018-12-21T12:38:07.567Z,97993.22
2018-12-21T12:40:34.654Z,98004.80
2018-12-21T12:43:01.756Z,98001.63
2018-12-21T12:45:28.872Z,97995.52
2018-12-21T12:47:56.163Z,97988.87
2018-12-21T12:50:24.559Z,97983.05
2018-12-21T12:52:51.880Z,98010.44
2018-12-21T12:55:19.083Z,97977.48
2018-12-21T12:57:46.211Z,97984.59
2018-12-21T13:00:15.347Z,98006.98
2018-12-21T13:02:42.440Z,98013.08
2018-12-21T13:05:09.655Z,97996.44
2018-12-21T13:07:36.903Z,97985.96
2018-12-21T13:10:06.304Z,98000.47
2018-12-21T13:12:34.239Z,97988.59
2018-12-21T13:15:01.443Z,97991.16
2018-12-21T13:17:29.059Z,97970.42
2018-12-21T13:19:56.253Z,97984.83
2018-12-21T13:22:24.088Z,98006.33
2018-12-21T13:24:51.280Z,98002.38
2018-12-21T13:27:18.468Z,98003.55
2018-12-21T13:29:45.660Z,97966.39
2018-12-21T13:32:12.806Z,98016.52
2018-12-21T13:34:40.176Z,98008.07
2018-12-21T13:37:07.321Z,97990.92
2018-12-21T13:39:34.529Z,97995.14
2018-12-21T13:42:01.682Z,98005.67
2018-12-21T13:44:28.887Z,98009.63
2018-12-21T13:46:56.081Z,98025.77
2018-12-21T13:49:23.225Z,97972.72
2018-12-21T13:51:50.389Z,98016.85
2018-12-21T13:54:17.568Z,98009.73
2018-12-21T13:56:44.738Z,98037.98
2018-12-21T13:59:12.028Z,98017.64
2018-12-21T14:01:39.180Z,98025.53
2018-12-21T14:04:06.410Z,98042.69
2018-12-21T14:06:33.548Z,98024.22
2018-12-21T14:09:00.785Z,98032.34
2018-12-21T14:11:28.052Z,98029.20
2018-12-21T14:13:56.297Z,98048.70
2018-12-21T14:16:23.471Z,98049.52
2018-12-21T14:18:50.581Z,98048.72
2018-12-21T14:21:17.816Z,98053.77
2018-12-21T14:23:45.589Z,98069.09
2018-12-21T14:26:12.717Z,98069.33
2018-12-21T14:28:39.812Z,98053.28
2018-12-21T14:31:07.552Z,98090.20
2018-12-21T14:33:35.756Z,98080.16
2018-12-21T14:36:03.719Z,98093.32
2018-12-21T14:38:30.867Z,98100.99
2018-12-21T14:40:57.968Z,98096.22
2018-12-21T14:43:25.677Z,98108.87
2018-12-21T14:45:52.846Z,98110.42
2018-12-21T14:48:20.086Z,98107.23
2018-12-21T14:50:47.261Z,98119.71
2018-12-21T14:53:14.390Z,98131.80
2018-12-21T14:55:41.562Z,98110.70
2018-12-21T14:58:08.693Z,98118.34
2018-12-21T15:00:35.811Z,98121.53
2018-12-21T15:03:03.775Z,98128.16
2018-12-21T15:05:30.928Z,98131.52
2018-12-21T15:07:58.280Z,98117.25
2018-12-21T15:10:25.855Z,98133.39
2018-12-21T15:12:53.561Z,98124.86
2018-12-21T15:15:20.927Z,98116.45
2018-12-21T15:17:48.072Z,98134.46
2018-12-21T15:20:15.325Z,98120.52
2018-12-21T15:22:42.504Z,98135.22
2018-12-21T15:25:09.607Z,98138.95
2018-12-21T15:27:36.844Z,98127.86
2018-12-21T15:30:06.853Z,98138.13
2018-12-21T15:32:33.994Z,98153.36
2018-12-21T15:35:01.057Z,98141.75
2018-12-21T15:37:28.791Z,98137.55
2018-12-21T15:39:55.921Z,98140.72
2018-12-21T15:42:23.092Z,98150.67
2018-12-21T15:44:50.317Z,98153.36
2018-12-21T15:47:17.467Z,98158.56
2018-12-21T15:49:45.352Z,98171.43
2018-12-21T15:52:12.420Z,98166.19
2018-12-21T15:54:40.253Z,98176.22
2018-12-21T15:57:08.505Z,98163.29
2018-12-21T15:59:36.658Z,98170.20
2018-12-21T16:02:03.886Z,98183.92
2018-12-21T16:04:31.102Z,98192.89
2018-12-21T16:06:58.277Z,98191.03
2018-12-21T16:09:25.402Z,98197.34
2018-12-21T16:11:54.066Z,98195.48
2018-12-21T16:14:21.910Z,98201.80
2018-12-21T16:16:49.318Z,98211.03
2018-12-21T16:19:17.040Z,98207.88
2018-12-21T16:21:44.761Z,98209.50
2018-12-21T16:24:11.863Z,98228.19
2018-12-21T16:26:38.975Z,98225.33
2018-12-21T16:29:07.215Z,98232.16
2018-12-21T16:31:34.775Z,98228.70
2018-12-21T16:34:02.109Z,98240.29
2018-12-21T16:36:29.325Z,98238.46
2018-12-21T16:38:56.687Z,98230.52
2018-12-21T16:41:23.802Z,98222.91
2018-12-21T16:43:52.448Z,98222.34
2018-12-21T16:46:19.695Z,98230.22
2018-12-21T16:48:47.336Z,98234.67
2018-12-21T16:51:14.758Z,98223.60
2018-12-21T16:53:42.028Z,98229.13
2018-12-21T16:56:12.635Z,98225.70
2018-12-21T16:58:38.349Z,98227.81
2018-12-21T17:01:05.499Z,98232.01
2018-12-21T17:03:32.744Z,98224.88
2018-12-21T17:06:00.122Z,98242.47
2018-12-21T17:08:27.389Z,98252.27
2018-12-21T17:10:54.567Z,98231.12
2018-12-21T17:13:21.764Z,98246.68
2018-12-21T17:15:49.175Z,98245.89
2018-12-21T17:18:16.804Z,98248.04
2018-12-21T17:20:44.176Z,98238.28
2018-12-21T17:23:11.473Z,98249.88
2018-12-21T17:25:38.637Z,98235.34
2018-12-21T17:28:05.824Z,98237.74
2018-12-21T17:30:33.067Z,98248.33
2018-12-21T17:33:00.372Z,98250.20
2018-12-21T17:35:27.584Z,98260.02
2018-12-21T17:37:54.768Z,98257.27
2018-12-21T17:40:21.985Z,98267.23
2018-12-21T17:42:49.100Z,98259.09
2018-12-21T17:45:16.249Z,98251.92
2018-12-21T17:47:43.396Z,98255.89
2018-12-21T17:50:11.242Z,98246.05
2018-12-21T17:52:38.327Z,98249.52
2018-12-21T17:55:07.194Z,98251.96
2018-12-21T17:57:34.316Z,98249.54
2018-12-21T18:00:01.416Z,98251.66
2018-12-21T18:02:28.551Z,98251.96
2018-12-21T18:04:55.649Z,98267.00
2018-12-21T18:07:22.780Z,98270.66
2018-12-21T18:09:49.847Z,98273.30
2018-12-21T18:12:17.612Z,98284.14
2018-12-21T18:14:45.770Z,98289.13
2018-12-21T18:17:12.903Z,98290.95
2018-12-21T18:19:40.083Z,98283.25
2018-12-21T18:22:15.295Z,98274.81
2018-12-21T18:24:42.604Z,98276.64
2018-12-21T18:27:09.745Z,98287.13
2018-12-21T18:29:38.969Z,98294.30
2018-12-21T18:32:13.016Z,98307.53
2018-12-21T18:34:40.129Z,98309.32
2018-12-21T18:37:08.841Z,98310.13
2018-12-21T18:39:35.912Z,98321.78
2018-12-21T18:42:05.725Z,98321.78
2018-12-21T18:44:33.080Z,98332.35
2018-12-21T18:47:01.057Z,98336.56
2018-12-21T18:49:28.325Z,98328.62
2018-12-21T18:51:55.431Z,98332.52
2018-12-21T18:54:22.740Z,98331.78
2018-12-21T18:56:57.372Z,98334.19
2018-12-21T18:59:24.607Z,98349.46
2018-12-21T19:01:51.741Z,98346.09
2018-12-21T19:04:18.809Z,98342.67
2018-12-21T19:06:45.959Z,98342.38
2018-12-21T19:09:13.047Z,98360.88
2018-12-21T19:11:40.199Z,98368.05
2018-12-21T19:14:07.548Z,98347.73
2018-12-21T19:16:34.870Z,98344.88
2018-12-21T19:19:02.175Z,98374.95
2018-12-21T19:21:29.755Z,98345.91
2018-12-21T19:23:56.864Z,98371.49
2018-12-21T19:26:24.017Z,98360.66
2018-12-21T19:28:51.168Z,98364.30
2018-12-21T19:31:18.292Z,98358.23
2018-12-21T19:33:45.614Z,98367.77
2018-12-21T19:36:12.771Z,98363.75
2018-12-21T19:41:14.293Z,98369.05
2018-12-21T19:43:41.560Z,98374.34
2018-12-21T19:46:08.702Z,98365.89
2018-12-21T19:48:35.884Z,98374.58
2018-12-21T19:51:03.201Z,98387.53
2018-12-21T19:53:30.306Z,98379.34
2018-12-21T19:56:39.336Z,98401.23
2018-12-21T19:59:06.468Z,98402.53
2018-12-21T20:01:34.538Z,98407.59
2018-12-21T20:04:01.672Z,98397.04
2018-12-21T20:06:29.213Z,98416.84
2018-12-21T20:08:56.624Z,98406.58
2018-12-21T20:11:23.789Z,98405.52
2018-12-21T20:13:50.883Z,98405.25
2018-12-21T20:16:19.389Z,98406.80
2018-12-21T20:18:47.754Z,98410.02
2018-12-21T20:21:15.133Z,98403.87
2018-12-21T20:23:42.187Z,98409.73
2018-12-21T20:26:09.280Z,98400.48
2018-12-21T20:28:36.969Z,98408.63
2018-12-21T20:31:04.829Z,98384.86
2018-12-21T20:33:32.465Z,98387.20
2018-12-21T20:35:59.784Z,98411.80
2018-12-21T20:38:27.018Z,98399.14
2018-12-21T20:40:54.432Z,98398.08
2018-12-21T20:43:21.709Z,98401.29
2018-12-21T20:45:49.231Z,98401.53
2018-12-21T20:48:16.559Z,98398.13
2018-12-21T20:50:44.426Z,98399.45
2018-12-21T20:53:11.624Z,98407.07
2018-12-21T20:55:38.720Z,98415.31
2018-12-21T20:58:41.461Z,98405.85
2018-12-21T21:01:08.678Z,98399.50
2018-12-21T21:03:35.798Z,98409.30
2018-12-21T21:06:03.000Z,98405.64
2018-12-21T21:08:30.122Z,98409.56
2018-12-21T21:10:57.471Z,98408.30
2018-12-21T21:13:24.593Z,98411.47
2018-12-21T21:15:51.823Z,98416.23
2018-12-21T21:18:18.963Z,98404.84
2018-12-21T21:20:46.232Z,98421.52
2018-12-21T21:23:13.366Z,98412.99
2018-12-21T21:25:40.459Z,98409.84
2018-12-21T21:28:07.570Z,98411.97
2018-12-21T21:30:36.564Z,98415.65
2018-12-21T21:33:03.817Z,98418.03
2018-12-21T21:35:31.015Z,98416.20
2018-12-21T21:37:58.140Z,98415.35
2018-12-21T21:40:25.271Z,98416.42
2018-12-21T21:42:57.504Z,98410.55
2018-12-21T21:45:21.565Z,98415.58
2018-12-21T21:47:48.662Z,98415.02
2018-12-21T21:50:16.517Z,98411.84
2018-12-21T21:52:43.732Z,98408.61
2018-12-21T21:55:10.882Z,98408.90
2018-12-21T21:57:39.537Z,98411.25
2018-12-21T22:00:10.551Z,98402.78
2018-12-21T22:02:37.644Z,98414.19
2018-12-21T22:05:04.747Z,98416.51
2018-12-21T22:07:31.852Z,98419.66
2018-12-21T22:09:58.976Z,98408.07
2018-12-21T22:12:26.047Z,98415.19
2018-12-21T22:14:53.224Z,98417.26
2018-12-21T22:17:20.342Z,98417.26
2018-12-21T22:19:47.372Z,98422.02
2018-12-21T22:22:14.672Z,98424.95
2018-12-21T22:24:41.880Z,98424.38
2018-12-21T22:27:09.028Z,98429.41
2018-12-21T22:29:36.197Z,98422.29
2018-12-21T22:32:04.044Z,98423.63
2018-12-21T22:34:31.261Z,98422.81
2018-12-21T22:36:58.368Z,98422.52
2018-12-21T22:39:25.476Z,98418.55
2018-12-21T22:41:52.711Z,98413.77
2018-12-21T22:44:19.892Z,98411.39
2018-12-21T22:46:47.669Z,98426.39
2018-12-21T22:49:14.742Z,98416.89
2018-12-21T22:51:42.784Z,98411.82
2018-12-21T22:54:10.154Z,98405.23
2018-12-21T22:56:37.272Z,98417.68
2018-12-21T22:59:04.367Z,98411.84
2018-12-21T23:01:31.655Z,98399.17
2018-12-21T23:03:58.888Z,98413.66
2018-12-21T23:06:26.012Z,98403.69
2018-12-21T23:08:53.175Z,98396.00
2018-12-21T23:11:20.297Z,98397.62
2018-12-21T23:13:47.695Z,98409.26
2018-12-21T23:16:14.908Z,98405.62
2018-12-21T23:18:42.027Z,98395.81
2018-12-21T23:21:09.155Z,98395.30
2018-12-21T23:23:36.272Z,98395.30
2018-12-21T23:26:03.483Z,98401.42
2018-12-21T23:28:30.608Z,98390.59
2018-12-21T23:30:57.698Z,98388.19
2018-12-21T23:33:24.856Z,98394.57
2018-12-21T23:35:51.980Z,98398.84
2018-12-21T23:38:19.198Z,98400.40
2018-12-21T23:40:46.343Z,98395.40
2018-12-21T23:43:13.739Z,98394.11
2018-12-21T23:45:40.871Z,98395.41
2018-12-21T23:48:08.063Z,98402.31
2018-12-21T23:50:35.439Z,98409.97
2018-12-21T23:53:02.766Z,98407.37
2018-12-21T23:55:29.919Z,98411.84
2018-12-21T23:57:57.356Z,98415.02
